createdAt,value
2023-02-24T00:01:01.196Z,50.50
2023-02-24T00:03:03.975Z,50.20
2023-02-24T00:05:12.144Z,50.27
2023-02-24T00:07:15.133Z,49.86
2023-02-24T00:09:19.230Z,49.94
2023-02-24T00:11:22.455Z,49.52
2023-02-24T00:13:24.136Z,49.75
2023-02-24T00:15:25.736Z,49.67
2023-02-24T00:17:27.362Z,49.73
2023-02-24T00:19:31.052Z,49.47
2023-02-24T00:21:33.108Z,49.81
2023-02-24T00:23:37.312Z,49.58
2023-02-24T00:25:38.943Z,49.72
2023-02-24T00:27:40.761Z,49.64
2023-02-24T00:29:45.895Z,49.52
2023-02-24T00:31:50.730Z,49.64
2023-02-24T00:33:52.755Z,49.34
2023-02-24T00:35:54.336Z,49.39
2023-02-24T00:37:55.936Z,49.39
2023-02-24T00:39:58.851Z,49.28
2023-02-24T00:42:01.124Z,49.58
2023-02-24T00:44:05.863Z,49.80
2023-02-24T00:46:07.513Z,49.68
2023-02-24T00:48:09.122Z,49.80
2023-02-24T00:50:12.474Z,49.88
2023-02-24T00:52:16.276Z,49.73
2023-02-24T00:54:20.367Z,49.62
2023-02-24T00:56:24.503Z,49.57
2023-02-24T00:58:26.362Z,49.73
2023-02-24T01:00:27.861Z,49.73
2023-02-24T01:02:29.755Z,50.02
2023-02-24T01:04:31.300Z,49.90
2023-02-24T01:06:33.765Z,49.73
2023-02-24T01:08:35.521Z,49.84
2023-02-24T01:10:37.163Z,49.86
2023-02-24T01:12:40.167Z,49.57
2023-02-24T01:14:44.290Z,49.63
2023-02-24T01:16:45.981Z,49.39
2023-02-24T01:18:47.735Z,49.60
2023-02-24T01:20:49.311Z,49.69
2023-02-24T01:22:52.128Z,49.56
2023-02-24T01:24:53.739Z,49.55
2023-02-24T01:26:55.393Z,49.49
2023-02-24T01:28:58.336Z,50.01
2023-02-24T01:31:01.293Z,49.81
2023-02-24T01:33:03.173Z,50.42
2023-02-24T01:35:05.656Z,50.33
2023-02-24T01:37:07.208Z,50.38
2023-02-24T01:39:09.265Z,50.25
2023-02-24T01:41:12.992Z,50.35
2023-02-24T01:43:14.607Z,50.39
2023-02-24T01:45:24.256Z,50.63
2023-02-24T01:47:26.655Z,50.65
2023-02-24T01:49:32.084Z,50.82
2023-02-24T01:51:37.853Z,50.38
2023-02-24T01:53:39.448Z,50.50
2023-02-24T01:55:44.396Z,50.55
2023-02-24T01:57:47.288Z,50.20
2023-02-24T01:59:51.055Z,50.49
2023-02-24T02:01:57.531Z,50.25
2023-02-24T02:04:05.712Z,49.94
2023-02-24T02:06:12.514Z,50.41
2023-02-24T02:08:16.377Z,50.19
2023-02-24T02:10:18.384Z,50.11
2023-02-24T02:12:20.672Z,50.58
2023-02-24T02:14:26.210Z,50.68
2023-02-24T02:16:56.963Z,50.35
2023-02-24T02:19:26.624Z,50.37
2023-02-24T02:22:01.527Z,50.62
2023-02-24T02:24:18.712Z,50.70
2023-02-24T02:26:36.150Z,50.68
2023-02-24T02:29:00.978Z,50.30
2023-02-24T02:31:38.261Z,50.13
2023-02-24T02:34:17.382Z,50.19
2023-02-24T02:36:26.930Z,50.12
2023-02-24T02:38:37.428Z,50.25
2023-02-24T02:40:44.432Z,50.26
2023-02-24T02:42:51.198Z,50.51
2023-02-24T02:45:02.622Z,50.76
2023-02-24T02:47:15.469Z,50.48
2023-02-24T02:49:24.766Z,50.59
2023-02-24T02:51:30.839Z,50.59
2023-02-24T02:53:38.877Z,50.83
2023-02-24T02:55:46.232Z,51.13
2023-02-24T02:57:52.140Z,50.86
2023-02-24T03:00:01.082Z,51.10
2023-02-24T03:02:05.372Z,51.06
2023-02-24T03:04:09.819Z,51.13
2023-02-24T03:06:17.363Z,51.45
2023-02-24T03:08:24.604Z,51.82
2023-02-24T03:10:29.818Z,52.05
2023-02-24T03:12:34.011Z,52.12
2023-02-24T03:14:42.880Z,51.94
2023-02-24T03:16:50.880Z,51.69
2023-02-24T03:18:56.047Z,51.96
2023-02-24T03:21:05.766Z,51.81
2023-02-24T03:23:17.533Z,51.89
2023-02-24T03:25:23.105Z,52.07
2023-02-24T03:27:31.571Z,52.13
2023-02-24T03:29:39.732Z,52.07
2023-02-24T03:31:46.847Z,51.76
2023-02-24T03:33:57.457Z,51.98
2023-02-24T03:35:59.295Z,51.60
2023-02-24T03:38:01.784Z,51.79
2023-02-24T03:40:13.113Z,51.82
2023-02-24T03:42:18.055Z,51.75
2023-02-24T03:44:19.953Z,51.41
2023-02-24T03:46:21.889Z,51.35
2023-02-24T03:48:25.980Z,51.86
2023-02-24T03:50:27.799Z,51.83
2023-02-24T03:52:38.451Z,52.06
2023-02-24T03:54:57.727Z,51.98
2023-02-24T03:57:13.361Z,51.88
2023-02-24T03:59:32.455Z,52.01
2023-02-24T04:01:46.118Z,51.64
2023-02-24T04:04:00.150Z,51.71
2023-02-24T04:06:11.238Z,51.47
2023-02-24T04:08:15.980Z,51.41
2023-02-24T04:10:23.839Z,51.66
2023-02-24T04:12:31.903Z,51.57
2023-02-24T04:14:41.129Z,51.37
2023-02-24T04:16:50.063Z,51.41
2023-02-24T04:18:56.771Z,51.21
2023-02-24T04:21:01.239Z,51.35
2023-02-24T04:23:07.016Z,51.44
2023-02-24T04:25:11.237Z,51.59
2023-02-24T04:27:15.347Z,51.67
2023-02-24T04:29:22.205Z,51.82
2023-02-24T04:31:26.487Z,51.65
2023-02-24T04:33:30.616Z,51.99
2023-02-24T04:35:32.523Z,52.22
2023-02-24T04:37:37.042Z,52.34
2023-02-24T04:39:38.977Z,52.26
2023-02-24T04:41:40.891Z,52.20
2023-02-24T04:43:45.472Z,52.29
2023-02-24T04:45:48.834Z,52.49
2023-02-24T04:47:52.803Z,52.36
2023-02-24T04:49:54.759Z,52.34
2023-02-24T04:52:01.893Z,52.62
2023-02-24T04:54:04.338Z,52.59
2023-02-24T04:56:10.010Z,52.61
2023-02-24T04:58:13.132Z,52.66
2023-02-24T05:00:16.285Z,52.60
2023-02-24T05:02:20.260Z,52.84
2023-02-24T05:04:22.270Z,52.79
2023-02-24T05:06:24.355Z,52.87
2023-02-24T05:08:30.305Z,53.02
2023-02-24T05:10:37.030Z,52.62
2023-02-24T05:12:38.832Z,52.54
2023-02-24T05:14:40.753Z,52.78
2023-02-24T05:16:44.190Z,52.57
2023-02-24T05:18:47.661Z,52.72
2023-02-24T05:20:51.166Z,52.68
2023-02-24T05:22:52.971Z,52.59
2023-02-24T05:24:54.865Z,52.69
2023-02-24T05:26:58.285Z,52.25
2023-02-24T05:29:00.136Z,52.50
2023-02-24T05:31:09.140Z,52.55
2023-02-24T05:33:11.091Z,52.31
2023-02-24T05:35:14.409Z,52.37
2023-02-24T05:37:16.146Z,52.84
2023-02-24T05:39:18.334Z,52.72
2023-02-24T05:41:20.412Z,52.81
2023-02-24T05:43:24.125Z,52.75
2023-02-24T05:45:26.108Z,52.81
2023-02-24T05:47:28.152Z,52.80
2023-02-24T05:49:32.257Z,53.05
2023-02-24T05:51:37.730Z,52.68
2023-02-24T05:53:40.050Z,52.73
2023-02-24T05:55:42.134Z,52.68
2023-02-24T05:57:44.009Z,52.49
2023-02-24T05:59:46.062Z,52.77
2023-02-24T06:01:49.984Z,53.38
2023-02-24T06:03:54.284Z,53.48
2023-02-24T06:05:56.283Z,53.42
2023-02-24T06:07:59.748Z,53.44
2023-02-24T06:10:02.673Z,53.29
2023-02-24T06:12:04.532Z,53.16
2023-02-24T06:14:09.923Z,52.86
2023-02-24T06:16:11.879Z,53.14
2023-02-24T06:18:13.783Z,53.27
2023-02-24T06:20:16.349Z,53.21
2023-02-24T06:22:20.445Z,53.02
2023-02-24T06:24:23.979Z,53.05
2023-02-24T06:26:26.878Z,53.06
2023-02-24T06:28:28.721Z,53.00
2023-02-24T06:30:30.574Z,52.55
2023-02-24T06:32:32.485Z,52.29
2023-02-24T06:34:34.752Z,52.05
2023-02-24T06:36:36.939Z,51.86
2023-02-24T06:38:38.726Z,52.24
2023-02-24T06:40:42.114Z,52.37
2023-02-24T06:42:47.739Z,52.26
2023-02-24T06:44:49.912Z,52.15
2023-02-24T06:46:51.879Z,52.31
2023-02-24T06:48:53.633Z,52.35
2023-02-24T06:50:55.473Z,52.05
2023-02-24T06:52:57.353Z,52.03
2023-02-24T06:54:59.191Z,51.89
2023-02-24T06:57:02.802Z,51.59
2023-02-24T06:59:05.540Z,51.59
2023-02-24T07:01:10.317Z,51.78
2023-02-24T07:03:15.753Z,51.95
2023-02-24T07:05:17.653Z,51.76
2023-02-24T07:07:19.387Z,51.54
2023-02-24T07:09:23.113Z,51.76
2023-02-24T07:11:26.187Z,51.82
2023-02-24T07:13:33.256Z,51.67
2023-02-24T07:15:35.626Z,51.37
2023-02-24T07:17:40.301Z,51.80
2023-02-24T07:19:42.029Z,51.67
2023-02-24T07:21:45.281Z,51.95
2023-02-24T07:23:47.118Z,51.71
2023-02-24T07:25:48.906Z,52.04
2023-02-24T07:27:52.155Z,52.01
2023-02-24T07:29:55.465Z,51.98
2023-02-24T07:31:58.567Z,51.93
2023-02-24T07:34:00.376Z,52.06
2023-02-24T07:36:05.437Z,51.70
2023-02-24T07:38:07.215Z,51.67
2023-02-24T07:40:10.452Z,52.09
2023-02-24T07:42:12.403Z,52.21
2023-02-24T07:44:14.280Z,52.25
2023-02-24T07:46:21.754Z,52.83
2023-02-24T07:48:23.718Z,52.35
2023-02-24T07:50:25.489Z,52.38
2023-02-24T07:52:27.463Z,52.40
2023-02-24T07:54:29.808Z,52.80
2023-02-24T07:56:34.981Z,53.11
2023-02-24T07:58:36.877Z,52.95
2023-02-24T08:00:38.695Z,53.00
2023-02-24T08:02:42.171Z,52.96
2023-02-24T08:04:44.291Z,52.73
2023-02-24T08:06:48.995Z,52.59
2023-02-24T08:08:50.639Z,52.28
2023-02-24T08:10:52.546Z,52.09
2023-02-24T08:12:56.580Z,52.56
2023-02-24T08:14:58.334Z,52.37
2023-02-24T08:17:00.601Z,52.50
2023-02-24T08:19:03.943Z,52.37
2023-02-24T08:21:08.776Z,52.40
2023-02-24T08:23:10.790Z,52.11
2023-02-24T08:25:14.098Z,51.83
2023-02-24T08:27:16.987Z,51.45
2023-02-24T08:29:18.790Z,51.92
2023-02-24T08:31:21.128Z,51.79
2023-02-24T08:33:25.234Z,51.21
2023-02-24T08:35:30.732Z,52.00
2023-02-24T08:37:33.739Z,51.72
2023-02-24T08:39:35.420Z,51.60
2023-02-24T08:41:37.152Z,51.47
2023-02-24T08:43:40.735Z,51.28
2023-02-24T08:45:43.586Z,50.78
2023-02-24T08:47:46.201Z,50.32
2023-02-24T08:49:47.849Z,50.01
2023-02-24T08:51:54.450Z,50.40
2023-02-24T08:53:58.549Z,50.16
2023-02-24T08:56:02.866Z,50.33
2023-02-24T08:58:04.621Z,50.12
2023-02-24T09:00:10.571Z,50.31
2023-02-24T09:02:14.302Z,49.93
2023-02-24T09:04:16.131Z,49.56
2023-02-24T09:06:21.424Z,50.16
2023-02-24T09:08:24.667Z,49.65
2023-02-24T09:10:26.529Z,49.73
2023-02-24T09:12:30.450Z,49.28
2023-02-24T09:14:33.616Z,49.47
2023-02-24T09:16:35.491Z,48.53
2023-02-24T09:18:37.591Z,49.20
2023-02-24T09:20:39.418Z,49.02
2023-02-24T09:22:41.173Z,49.04
2023-02-24T09:24:44.516Z,48.72
2023-02-24T09:26:46.280Z,48.57
2023-02-24T09:28:48.410Z,48.53
2023-02-24T09:30:53.073Z,48.52
2023-02-24T09:32:55.003Z,48.82
2023-02-24T09:34:56.718Z,48.31
2023-02-24T09:36:58.527Z,48.77
2023-02-24T09:39:00.976Z,48.35
2023-02-24T09:41:23.701Z,48.60
2023-02-24T09:43:29.266Z,48.19
2023-02-24T09:45:30.970Z,47.50
2023-02-24T09:47:39.362Z,47.73
2023-02-24T09:49:50.230Z,46.89
2023-02-24T09:51:51.952Z,47.23
2023-02-24T09:53:56.447Z,47.67
2023-02-24T09:56:03.009Z,47.01
2023-02-24T09:58:17.078Z,46.93
2023-02-24T10:00:22.755Z,46.94
2023-02-24T10:02:40.702Z,46.42
2023-02-24T10:04:54.862Z,46.12
2023-02-24T10:07:03.198Z,46.13
2023-02-24T10:09:12.423Z,46.58
2023-02-24T10:11:15.923Z,45.94
2023-02-24T10:13:23.050Z,44.85
2023-02-24T10:15:28.981Z,45.12
2023-02-24T10:17:30.915Z,44.63
2023-02-24T10:19:32.910Z,45.63
2023-02-24T10:21:39.772Z,45.66
2023-02-24T10:23:56.689Z,45.35
2023-02-24T10:26:07.299Z,45.41
2023-02-24T10:28:22.525Z,45.21
2023-02-24T10:30:38.881Z,45.02
2023-02-24T10:32:49.544Z,44.91
2023-02-24T10:34:51.770Z,45.42
2023-02-24T10:36:56.083Z,45.10
2023-02-24T10:38:57.914Z,44.78
2023-02-24T10:41:00.969Z,45.37
2023-02-24T10:43:07.508Z,45.30
2023-02-24T10:45:19.404Z,45.09
2023-02-24T10:47:26.115Z,45.78
2023-02-24T10:49:27.810Z,46.29
2023-02-24T10:51:32.113Z,45.57
2023-02-24T10:53:35.423Z,45.89
2023-02-24T10:55:43.138Z,46.12
2023-02-24T10:57:58.216Z,46.32
2023-02-24T11:00:00.812Z,45.69
2023-02-24T11:02:16.755Z,45.58
2023-02-24T11:04:18.770Z,45.62
2023-02-24T11:06:22.794Z,45.31
2023-02-24T11:08:24.340Z,45.14
2023-02-24T11:10:26.344Z,46.00
2023-02-24T11:12:30.614Z,46.40
2023-02-24T11:14:34.455Z,45.93
2023-02-24T11:16:48.087Z,45.31
2023-02-24T11:18:53.616Z,45.66
2023-02-24T11:20:59.458Z,45.18
2023-02-24T11:23:07.023Z,45.29
2023-02-24T11:25:15.454Z,45.17
2023-02-24T11:27:21.311Z,44.64
2023-02-24T11:30:02.971Z,44.35
2023-02-24T11:32:24.778Z,44.71
2023-02-24T11:34:44.364Z,45.73
2023-02-24T11:36:53.643Z,45.03
2023-02-24T11:39:17.766Z,44.81
2023-02-24T11:41:26.898Z,45.18
2023-02-24T11:43:31.533Z,45.46
2023-02-24T11:45:38.334Z,45.65
2023-02-24T11:47:45.640Z,45.13
2023-02-24T11:49:51.369Z,44.74
2023-02-24T11:51:54.349Z,44.72
2023-02-24T11:54:01.165Z,44.32
2023-02-24T11:56:07.600Z,44.71
2023-02-24T11:58:17.497Z,44.97
2023-02-24T12:00:23.830Z,44.00
2023-02-24T12:02:37.749Z,43.98
2023-02-24T12:04:49.608Z,43.73
2023-02-24T12:06:59.674Z,44.48
2023-02-24T12:09:08.821Z,44.06
2023-02-24T12:11:21.148Z,44.70
2023-02-24T12:13:31.622Z,44.22
2023-02-24T12:15:40.713Z,44.19
2023-02-24T12:17:48.640Z,43.95
2023-02-24T12:20:07.026Z,44.16
2023-02-24T12:22:14.476Z,43.55
2023-02-24T12:24:16.606Z,43.35
2023-02-24T12:26:22.159Z,43.09
2023-02-24T12:28:41.246Z,43.80
2023-02-24T12:31:02.366Z,43.39
2023-02-24T12:33:17.066Z,43.66
2023-02-24T12:35:29.436Z,43.83
2023-02-24T12:37:47.902Z,42.47
2023-02-24T12:40:00.925Z,42.24
2023-02-24T12:42:12.113Z,42.30
2023-02-24T12:44:26.666Z,42.43
2023-02-24T12:46:33.401Z,42.03
2023-02-24T12:48:56.432Z,41.60
2023-02-24T12:51:04.460Z,42.16
2023-02-24T12:53:20.376Z,41.38
2023-02-24T12:55:35.044Z,41.59
2023-02-24T12:57:48.133Z,41.28
2023-02-24T12:59:50.675Z,40.73
2023-02-24T13:02:00.799Z,41.30
2023-02-24T13:04:11.443Z,40.86
2023-02-24T13:06:21.946Z,40.27
2023-02-24T13:08:37.434Z,40.62
2023-02-24T13:10:47.238Z,40.08
2023-02-24T13:12:54.059Z,40.66
2023-02-24T13:14:58.644Z,39.80
2023-02-24T13:17:17.718Z,39.65
2023-02-24T13:19:22.000Z,39.90
2023-02-24T13:21:24.044Z,40.59
2023-02-24T13:23:27.687Z,40.60
2023-02-24T13:25:33.055Z,40.99
2023-02-24T13:27:36.670Z,39.50
2023-02-24T13:29:46.901Z,39.75
2023-02-24T13:31:50.834Z,40.18
2023-02-24T13:33:52.738Z,39.68
2023-02-24T13:36:13.685Z,39.94
2023-02-24T13:38:34.511Z,39.91
2023-02-24T13:40:36.654Z,39.56
2023-02-24T13:42:38.419Z,39.81
2023-02-24T13:44:48.715Z,38.37
2023-02-24T13:47:09.033Z,39.81
2023-02-24T13:49:23.995Z,39.14
2023-02-24T13:51:49.949Z,39.50
2023-02-24T13:54:12.909Z,39.23
2023-02-24T13:56:27.136Z,39.31
2023-02-24T13:58:44.708Z,39.19
2023-02-24T14:01:00.221Z,39.23
2023-02-24T14:03:11.149Z,39.47
2023-02-24T14:05:21.710Z,39.57
2023-02-24T14:07:25.823Z,40.21
2023-02-24T14:09:32.964Z,39.70
2023-02-24T14:11:37.022Z,39.47
2023-02-24T14:13:39.170Z,39.43
2023-02-24T14:15:43.599Z,39.79
2023-02-24T14:17:55.974Z,39.86
2023-02-24T14:20:10.844Z,39.74
2023-02-24T14:22:19.365Z,39.38
2023-02-24T14:24:22.253Z,40.10
2023-02-24T14:26:26.380Z,39.81
2023-02-24T14:28:31.127Z,39.48
2023-02-24T14:30:38.009Z,40.17
2023-02-24T14:32:40.124Z,39.51
2023-02-24T14:34:47.089Z,40.69
2023-02-24T14:36:53.211Z,40.34
2023-02-24T14:39:07.765Z,39.13
2023-02-24T14:41:20.074Z,39.11
2023-02-24T14:43:26.479Z,38.85
2023-02-24T14:45:29.296Z,37.94
2023-02-24T14:47:31.889Z,37.98
2023-02-24T14:49:49.467Z,36.88
2023-02-24T14:51:59.071Z,36.97
2023-02-24T14:54:06.021Z,37.77
2023-02-24T14:56:11.792Z,36.53
2023-02-24T14:58:18.561Z,36.69
2023-02-24T15:00:24.791Z,35.96
2023-02-24T15:02:32.758Z,35.86
2023-02-24T15:04:37.027Z,36.50
2023-02-24T15:06:42.842Z,36.30
2023-02-24T15:08:48.594Z,37.10
2023-02-24T15:10:50.437Z,36.48
2023-02-24T15:12:55.796Z,36.61
2023-02-24T15:15:00.851Z,36.31
2023-02-24T15:17:10.490Z,34.96
2023-02-24T15:19:24.874Z,35.07
2023-02-24T15:21:30.268Z,35.29
2023-02-24T15:23:34.208Z,36.33
2023-02-24T15:25:43.468Z,36.19
2023-02-24T15:27:51.148Z,35.34
2023-02-24T15:30:07.503Z,35.01
2023-02-24T15:32:17.714Z,34.68
2023-02-24T15:34:22.427Z,35.17
2023-02-24T15:36:27.926Z,35.28
2023-02-24T15:38:34.273Z,35.78
2023-02-24T15:40:36.466Z,35.46
2023-02-24T15:42:38.249Z,35.31
2023-02-24T15:44:40.132Z,35.37
2023-02-24T15:46:41.789Z,34.95
2023-02-24T15:48:47.115Z,35.42
2023-02-24T15:50:49.564Z,35.94
2023-02-24T15:52:51.434Z,35.33
2023-02-24T15:54:54.096Z,35.45
2023-02-24T15:56:58.247Z,36.25
2023-02-24T15:59:00.083Z,35.31
2023-02-24T16:01:01.764Z,35.03
2023-02-24T16:03:03.805Z,35.25
2023-02-24T16:05:09.116Z,35.54
2023-02-24T16:07:16.627Z,36.09
2023-02-24T16:09:19.417Z,35.31
2023-02-24T16:11:26.317Z,35.31
2023-02-24T16:13:28.394Z,35.86
2023-02-24T16:15:33.237Z,38.51
2023-02-24T16:17:38.097Z,36.02
2023-02-24T16:19:39.689Z,36.01
2023-02-24T16:21:43.484Z,36.50
2023-02-24T16:23:45.184Z,35.60
2023-02-24T16:25:47.108Z,36.12
2023-02-24T16:27:49.204Z,35.47
2023-02-24T16:29:50.889Z,35.46
2023-02-24T16:31:55.998Z,35.69
2023-02-24T16:33:58.092Z,35.68
2023-02-24T16:36:01.767Z,35.73
2023-02-24T16:38:04.909Z,35.34
2023-02-24T16:40:18.816Z,34.84
2023-02-24T16:42:21.971Z,34.69
2023-02-24T16:44:23.800Z,35.01
2023-02-24T16:46:33.056Z,35.65
2023-02-24T16:48:37.245Z,35.58
2023-02-24T16:50:41.138Z,35.08
2023-02-24T16:52:44.126Z,35.26
2023-02-24T16:54:47.280Z,35.10
2023-02-24T16:56:49.157Z,35.46
2023-02-24T16:58:50.998Z,35.62
2023-02-24T17:00:56.065Z,35.71
2023-02-24T17:02:58.014Z,35.56
2023-02-24T17:04:59.785Z,35.75
2023-02-24T17:07:01.493Z,35.76
2023-02-24T17:09:03.127Z,35.75
2023-02-24T17:11:06.425Z,35.93
2023-02-24T17:13:10.356Z,35.70
2023-02-24T17:15:14.766Z,35.81
2023-02-24T17:17:16.560Z,35.89
2023-02-24T17:19:18.170Z,35.91
2023-02-24T17:21:19.867Z,35.86
2023-02-24T17:23:21.780Z,35.93
2023-02-24T17:25:25.806Z,36.13
2023-02-24T17:27:29.009Z,36.25
2023-02-24T17:29:30.724Z,36.31
2023-02-24T17:31:32.555Z,36.29
2023-02-24T17:33:34.305Z,36.13
2023-02-24T17:35:35.941Z,36.78
2023-02-24T17:37:37.864Z,36.59
2023-02-24T17:39:39.481Z,37.11
2023-02-24T17:41:41.119Z,36.85
2023-02-24T17:43:44.190Z,37.47
2023-02-24T17:45:48.366Z,37.27
2023-02-24T17:47:50.336Z,37.22
2023-02-24T17:49:51.992Z,37.24
2023-02-24T17:51:53.732Z,37.23
2023-02-24T17:53:55.445Z,37.01
2023-02-24T17:56:03.074Z,36.84
2023-02-24T17:58:04.995Z,36.89
2023-02-24T18:00:10.880Z,36.26
2023-02-24T18:02:13.239Z,35.86
2023-02-24T18:04:14.917Z,35.79
2023-02-24T18:06:17.207Z,35.55
2023-02-24T18:08:18.960Z,35.33
2023-02-24T18:10:20.997Z,35.34
2023-02-24T18:12:22.757Z,34.96
2023-02-24T18:14:24.413Z,34.86
2023-02-24T18:16:27.869Z,34.75
2023-02-24T18:18:29.584Z,34.84
2023-02-24T18:20:36.348Z,34.18
2023-02-24T18:22:38.024Z,34.29
2023-02-24T18:24:39.817Z,33.84
2023-02-24T18:26:41.627Z,34.11
2023-02-24T18:28:43.491Z,34.14
2023-02-24T18:30:45.217Z,34.21
2023-02-24T18:32:48.383Z,34.74
2023-02-24T18:34:50.028Z,35.37
2023-02-24T18:36:51.674Z,36.88
2023-02-24T18:38:53.678Z,36.25
2023-02-24T18:40:59.699Z,36.79
2023-02-24T18:43:01.415Z,36.66
2023-02-24T18:45:03.834Z,37.39
2023-02-24T18:47:05.474Z,37.50
2023-02-24T18:49:08.635Z,37.79
2023-02-24T18:51:10.885Z,38.13
2023-02-24T18:53:12.525Z,38.53
2023-02-24T18:55:14.205Z,39.02
2023-02-24T18:57:15.984Z,39.14
2023-02-24T18:59:17.910Z,40.42
2023-02-24T19:01:22.041Z,40.89
2023-02-24T19:03:24.019Z,41.47
2023-02-24T19:05:37.704Z,42.18
2023-02-24T19:07:40.065Z,43.67
2023-02-24T19:09:42.051Z,43.92
2023-02-24T19:11:43.826Z,43.97
2023-02-24T19:13:46.542Z,45.07
2023-02-24T19:15:48.271Z,45.17
2023-02-24T19:17:49.964Z,45.35
2023-02-24T19:19:52.026Z,45.99
2023-02-24T19:21:55.047Z,46.16
2023-02-24T19:23:59.506Z,46.23
2023-02-24T19:26:01.146Z,46.92
2023-02-24T19:28:02.883Z,46.69
2023-02-24T19:30:05.907Z,47.91
2023-02-24T19:32:07.860Z,47.57
2023-02-24T19:34:11.714Z,47.91
2023-02-24T19:36:13.457Z,48.76
2023-02-24T19:38:18.349Z,48.83
2023-02-24T19:40:20.055Z,48.69
2023-02-24T19:42:21.650Z,48.30
2023-02-24T19:44:23.318Z,48.64
2023-02-24T19:46:25.501Z,48.98
2023-02-24T19:48:27.350Z,48.96
2023-02-24T19:50:29.127Z,49.93
2023-02-24T19:52:30.730Z,49.70
2023-02-24T19:54:33.785Z,50.49
2023-02-24T19:56:36.705Z,49.89
2023-02-24T19:58:38.399Z,49.71
2023-02-24T20:00:39.990Z,49.43
2023-02-24T20:02:41.727Z,50.58
2023-02-24T20:04:43.525Z,51.27
2023-02-24T20:06:45.143Z,51.70
2023-02-24T20:08:47.466Z,51.13
2023-02-24T20:11:00.247Z,51.82
2023-02-24T20:13:01.866Z,51.35
2023-02-24T20:15:04.066Z,50.76
2023-02-24T20:17:05.972Z,50.64
2023-02-24T20:19:08.789Z,50.44
2023-02-24T20:21:11.237Z,51.52
2023-02-24T20:23:12.805Z,51.78
2023-02-24T20:25:21.977Z,52.36
2023-02-24T20:27:25.006Z,52.32
2023-02-24T20:29:26.658Z,53.06
2023-02-24T20:31:28.931Z,53.01
2023-02-24T20:33:30.674Z,53.25
2023-02-24T20:35:32.415Z,53.24
2023-02-24T20:37:34.066Z,53.75
2023-02-24T20:39:35.851Z,53.14
2023-02-24T20:41:37.449Z,53.78
2023-02-24T20:43:40.407Z,54.04
2023-02-24T20:45:42.042Z,54.37
2023-02-24T20:47:43.670Z,54.14
2023-02-24T20:49:47.814Z,53.99
2023-02-24T20:51:50.084Z,54.02
2023-02-24T20:53:57.618Z,53.75
2023-02-24T20:56:01.459Z,54.06
2023-02-24T20:58:03.243Z,54.19
2023-02-24T21:00:07.645Z,54.47
2023-02-24T21:02:11.461Z,54.35
2023-02-24T21:04:13.808Z,54.29
2023-02-24T21:06:17.146Z,54.35
2023-02-24T21:08:18.837Z,54.10
2023-02-24T21:10:21.311Z,54.02
2023-02-24T21:12:22.926Z,53.90
2023-02-24T21:14:24.479Z,53.15
2023-02-24T21:16:29.345Z,52.64
2023-02-24T21:18:31.004Z,52.96
2023-02-24T21:20:32.641Z,53.08
2023-02-24T21:22:34.274Z,52.75
2023-02-24T21:24:35.901Z,53.33
2023-02-24T21:26:37.502Z,52.28
2023-02-24T21:28:40.402Z,52.68
2023-02-24T21:30:42.163Z,51.73
2023-02-24T21:32:45.442Z,51.71
2023-02-24T21:34:47.244Z,51.71
2023-02-24T21:36:48.958Z,50.85
2023-02-24T21:38:50.646Z,51.36
2023-02-24T21:40:52.368Z,51.61
2023-02-24T21:42:54.024Z,51.24
2023-02-24T21:44:55.689Z,51.98
2023-02-24T21:46:57.575Z,51.73
2023-02-24T21:49:00.650Z,51.53
2023-02-24T21:51:04.925Z,51.84
2023-02-24T21:53:06.631Z,51.91
2023-02-24T21:55:09.679Z,51.16
2023-02-24T21:57:11.367Z,51.58
2023-02-24T21:59:13.281Z,51.58
2023-02-24T22:01:17.459Z,51.09
2023-02-24T22:03:19.266Z,51.22
2023-02-24T22:05:23.925Z,51.60
2023-02-24T22:07:25.617Z,51.12
2023-02-24T22:09:27.349Z,50.63
2023-02-24T22:11:31.122Z,50.98
2023-02-24T22:13:32.819Z,50.92
2023-02-24T22:15:34.563Z,50.01
2023-02-24T22:17:38.290Z,50.07
2023-02-24T22:19:40.128Z,50.05
2023-02-24T22:21:43.293Z,50.42
2023-02-24T22:23:46.096Z,50.27
2023-02-24T22:25:47.823Z,50.65
2023-02-24T22:27:49.572Z,50.62
2023-02-24T22:29:53.453Z,50.83
2023-02-24T22:31:55.250Z,49.99
2023-02-24T22:33:57.635Z,51.06
2023-02-24T22:36:01.732Z,50.64
2023-02-24T22:38:04.789Z,50.16
2023-02-24T22:40:07.659Z,49.82
2023-02-24T22:42:09.799Z,50.31
2023-02-24T22:44:11.539Z,50.26
2023-02-24T22:46:15.269Z,50.33
2023-02-24T22:48:17.128Z,50.93
2023-02-24T22:50:19.030Z,50.83
2023-02-24T22:52:20.871Z,51.18
2023-02-24T22:54:24.077Z,50.40
2023-02-24T22:56:27.794Z,49.67
2023-02-24T22:58:29.513Z,50.23
2023-02-24T23:00:31.617Z,50.64
2023-02-24T23:02:33.340Z,50.15
2023-02-24T23:04:37.493Z,49.50
2023-02-24T23:06:39.599Z,49.75
2023-02-24T23:08:43.330Z,48.54
2023-02-24T23:10:46.484Z,47.77
2023-02-24T23:12:48.204Z,48.07
2023-02-24T23:14:49.910Z,48.24
2023-02-24T23:16:52.669Z,47.71
2023-02-24T23:18:54.441Z,47.48
2023-02-24T23:21:00.276Z,47.05
2023-02-24T23:23:02.113Z,47.15
2023-02-24T23:25:04.129Z,47.35
2023-02-24T23:27:07.179Z,46.70
2023-02-24T23:29:09.830Z,47.21
2023-02-24T23:31:17.900Z,47.23
2023-02-24T23:33:19.975Z,46.49
2023-02-24T23:35:21.827Z,47.20
2023-02-24T23:37:23.631Z,46.86
2023-02-24T23:39:25.271Z,46.64
2023-02-24T23:41:27.317Z,46.80
2023-02-24T23:43:30.389Z,46.61
2023-02-24T23:45:32.224Z,46.84
2023-02-24T23:47:34.171Z,47.44
2023-02-24T23:49:47.461Z,47.80
2023-02-24T23:51:49.522Z,47.43
2023-02-24T23:53:52.466Z,47.63
2023-02-24T23:55:54.186Z,47.12
2023-02-24T23:57:56.088Z,47.87
2023-02-24T23:59:59.233Z,47.83
